»·PEaware :: QXE2372 KSEA-KGEG

QXE2372 :: KSEA-KGEG

FLIGHT INFORMATION

Flight Status: Arrived
Operator:
Horizon Air
More flights by this operator :: More flights under this callsign
Pilot: Henderson P. (1210)
Aircraft: DEHAVILLAND DASH 8 400
(DH8D)
More flights by this aircraft type
Origin: KSEA Seattle-Tacoma Intl
United States
Destination: KGEG Spokane Intl
United States
More flights between these airports :: More routes between these airports
Route: ZADON ZELAK ZIRAN ZOOMR ZOOMR1
File this flight plan on PilotEdge
Remarks:
Altitude:
(Current/Filed)
23,000ft
Speed:
(Current/Filed)
318kts
Departed: 23-Oct-18 05:23 AM
Arrived: 23-Oct-18 06:08 AM
Distance/Time
Traveled:
194nm/0:45
Distance/Time
To Go:
Arrived

Flight Plot

Page will automatically refresh every two minutes.


Map Options




Map Legend


Flown Route
Filed Route
Departure Airport
Arrival Airport
Navaid (VOR, NDB)
Fix

Horizontal Profiles

Position Reports

Time Latitude Longitude Heading Altitude Ground
Speed
23-Oct-18 04:57 47.445694 -122.304766 89 440ft 0kts
23-Oct-18 04:58 47.445694 -122.304766 89 440ft 0kts
23-Oct-18 04:59 47.445694 -122.304766 89 440ft 0kts
23-Oct-18 05:00 47.445694 -122.304766 89 440ft 0kts
23-Oct-18 05:01 47.445694 -122.304766 89 440ft 0kts
23-Oct-18 05:02 47.445694 -122.304766 89 440ft 0kts
23-Oct-18 05:03 47.445694 -122.304766 89 440ft 0kts
23-Oct-18 05:04 47.445373 -122.305421 0 440ft 2kts
23-Oct-18 05:05 47.445334 -122.305422 0 440ft 0kts
23-Oct-18 05:06 47.445334 -122.305422 0 440ft 0kts
23-Oct-18 05:07 47.445334 -122.305422 0 440ft 0kts
23-Oct-18 05:08 47.445334 -122.305422 0 440ft 0kts
23-Oct-18 05:09 47.445670 -122.306051 303 440ft 5kts
23-Oct-18 05:10 47.448087 -122.306295 0 440ft 12kts
23-Oct-18 05:11 47.451488 -122.307874 0 440ft 14kts
23-Oct-18 05:12 47.455241 -122.307864 0 440ft 15kts
23-Oct-18 05:13 47.459149 -122.307778 359 440ft 12kts
23-Oct-18 05:14 47.462353 -122.307770 359 440ft 10kts
23-Oct-18 05:15 47.463675 -122.309535 270 440ft 2kts
23-Oct-18 05:16 47.463675 -122.309568 270 440ft 0kts
23-Oct-18 05:17 47.463675 -122.309568 270 440ft 0kts
23-Oct-18 05:18 47.463675 -122.309568 270 440ft 0kts
23-Oct-18 05:19 47.463675 -122.309568 270 440ft 0kts
23-Oct-18 05:20 47.463675 -122.309568 270 440ft 0kts
23-Oct-18 05:21 47.463675 -122.309568 270 440ft 0kts
23-Oct-18 05:22 47.463676 -122.309664 271 441ft 1kts
23-Oct-18 05:23 47.463321 -122.311013 180 440ft 0kts
23-Oct-18 05:24 47.463321 -122.311013 180 440ft 0kts
23-Oct-18 05:25 47.456164 -122.311070 180 441ft 118kts
23-Oct-18 05:26 47.417960 -122.310963 180 2737ft 146kts
23-Oct-18 05:27 47.388707 -122.268417 79 4654ft 214kts
23-Oct-18 05:28 47.409580 -122.178002 73 6700ft 246kts
23-Oct-18 05:29 47.432326 -122.083552 73 8876ft 257kts
23-Oct-18 05:30 47.455936 -121.984117 73 10698ft 263kts
23-Oct-18 05:31 47.479790 -121.881846 73 12080ft 268kts
23-Oct-18 05:32 47.504755 -121.776354 73 13389ft 273kts
23-Oct-18 05:33 47.530212 -121.668534 73 14586ft 278kts
23-Oct-18 05:34 47.555335 -121.560451 75 15664ft 281kts
23-Oct-18 05:35 47.558641 -121.445360 95 16673ft 280kts
23-Oct-18 05:36 47.556571 -121.329419 95 17672ft 281kts
23-Oct-18 05:37 47.554753 -121.213266 95 18680ft 279kts
23-Oct-18 05:38 47.552760 -121.098207 95 19682ft 276kts
23-Oct-18 05:39 47.550717 -120.985810 95 20672ft 272kts
23-Oct-18 05:40 47.548656 -120.873808 95 21676ft 267kts
23-Oct-18 05:41 47.546458 -120.764481 95 22674ft 261kts
23-Oct-18 05:42 47.543984 -120.653611 95 23009ft 284kts
23-Oct-18 05:43 47.541378 -120.531388 95 23019ft 309kts
23-Oct-18 05:44 47.538391 -120.401848 95 23018ft 324kts
23-Oct-18 05:45 47.531990 -120.265632 96 23019ft 333kts
23-Oct-18 05:46 47.525334 -120.126971 96 23018ft 339kts
23-Oct-18 05:47 47.518686 -119.986493 96 23017ft 342kts
23-Oct-18 05:48 47.511781 -119.845824 96 23016ft 344kts
23-Oct-18 05:49 47.504740 -119.703888 96 23014ft 345kts
23-Oct-18 05:50 47.497453 -119.562140 96 23012ft 345kts
23-Oct-18 05:51 47.489960 -119.419441 97 23012ft 345kts
23-Oct-18 05:52 47.482325 -119.278555 96 23012ft 345kts
23-Oct-18 05:53 47.474631 -119.137459 96 23018ft 345kts
23-Oct-18 05:54 47.466653 -118.995797 96 23018ft 345kts
23-Oct-18 05:55 47.458470 -118.854071 96 23018ft 345kts
23-Oct-18 05:56 47.450195 -118.712996 96 23017ft 345kts
23-Oct-18 05:57 47.441519 -118.567792 97 21666ft 357kts
23-Oct-18 05:58 47.432576 -118.421840 97 19822ft 357kts
23-Oct-18 05:59 47.438778 -118.276560 66 18052ft 360kts
23-Oct-18 06:00 47.491101 -118.148896 61 16138ft 362kts
23-Oct-18 06:01 47.542127 -118.023294 60 14274ft 350kts
23-Oct-18 06:02 47.590118 -117.904525 60 12522ft 339kts
23-Oct-18 06:03 47.636965 -117.788431 60 10809ft 332kts
23-Oct-18 06:04 47.679026 -117.683639 60 9257ft 290kts
23-Oct-18 06:05 47.718224 -117.586076 56 7554ft 276kts
23-Oct-18 06:06 47.742352 -117.492918 104 5803ft 245kts
23-Oct-18 06:07 47.695585 -117.442587 185 4180ft 216kts
23-Oct-18 06:08 47.657744 -117.477172 223 3102ft 124kts
23-Oct-18 06:09 47.632035 -117.517107 225 2407ft 140kts
23-Oct-18 06:10 47.618146 -117.538493 270 2358ft 11kts
23-Oct-18 06:11 47.618333 -117.541604 314 2358ft 9kts
23-Oct-18 06:12 47.621081 -117.537609 45 2358ft 17kts
23-Oct-18 06:13 47.623626 -117.536891 6 2358ft 10kts
23-Oct-18 06:14 47.623842 -117.537328 223 2357ft 0kts
23-Oct-18 06:15 47.623842 -117.537328 223 2357ft 0kts
23-Oct-18 06:16 47.623842 -117.537328 223 2357ft 0kts
23-Oct-18 06:17 47.623842 -117.537328 223 2357ft 0kts
23-Oct-18 06:18 47.623842 -117.537328 223 2357ft 0kts
23-Oct-18 06:19 47.623842 -117.537328 223 2357ft 0kts
23-Oct-18 06:20 47.623842 -117.537328 223 2357ft 0kts
23-Oct-18 06:21 47.623842 -117.537328 223 2357ft 0kts
23-Oct-18 06:22 47.623842 -117.537328 223 2357ft 0kts
23-Oct-18 06:23 47.623842 -117.537329 223 2357ft 0kts
23-Oct-18 06:24 47.623842 -117.537329 223 2357ft 0kts
23-Oct-18 06:25 47.623842 -117.537329 223 2357ft 0kts

Navigation Log

Ident Type
1. KSEA Airport
2. ZADON Fix
3. ZELAK Fix
4. ZIRAN Fix
5. ZOOMR Fix
6. GANGS Fix
7. KNOCK Fix
8. KGEG Airport